Time;durP1;ratioP1;P1;durP2;ratioP2;P2;SDS_P1;SDS_P2;PMS_P1;PMS_P2;Temp;Humidity;BMP_temperature;BMP_pressure;BME280_temperature;BME280_humidity;BME280_pressure;Samples;Min_cycle;Max_cycle;Signal;HPM_P1;HPM_P2
2022/08/15 04:00:17;;;;;;;10.37;9.30;;;14.70;96.30;;;;;;6021103;23;20366;-79
2022/08/15 04:02:43;;;;;;;22.30;9.93;;;14.70;96.30;;;;;;4993442;28;20975;-77
2022/08/15 04:05:09;;;;;;;10.27;9.27;;;14.80;96.30;;;;;;4994885;28;20421;-78
2022/08/15 04:07:36;;;;;;;10.20;9.10;;;14.90;96.30;;;;;;4994792;28;20641;-77
2022/08/15 04:10:05;;;;;;;12.30;9.20;;;15.00;96.30;;;;;;4994470;28;20823;-77
2022/08/15 04:12:34;;;;;;;12.40;9.57;;;15.30;96.30;;;;;;4994711;28;20839;-77
2022/08/15 04:15:00;;;;;;;9.97;8.97;;;15.40;96.30;;;;;;4994821;28;20412;-77
2022/08/15 04:17:25;;;;;;;10.17;8.73;;;15.40;96.30;;;;;;4995521;28;20459;-76
2022/08/15 04:19:51;;;;;;;9.93;8.93;;;15.50;96.30;;;;;;4995079;28;20189;-79
2022/08/15 04:22:25;;;;;;;17.10;8.77;;;15.60;96.30;;;;;;4979451;28;20201;-80
2022/08/15 04:24:51;;;;;;;11.63;8.33;;;15.80;96.30;;;;;;4996782;28;20525;-78
2022/08/15 04:27:16;;;;;;;10.80;8.60;;;15.90;96.30;;;;;;4996221;28;20416;-79
2022/08/15 04:29:42;;;;;;;9.83;8.83;;;16.00;96.30;;;;;;4977428;28;20177;-78
2022/08/15 04:32:12;;;;;;;10.10;8.30;;;16.00;96.30;;;;;;4978072;28;20204;-79
2022/08/15 04:34:38;;;;;;;8.83;7.93;;;16.10;96.30;;;;;;4995405;28;20178;-79
2022/08/15 04:37:03;;;;;;;9.77;8.77;;;16.10;96.30;;;;;;4995804;28;20828;-78
2022/08/15 04:39:29;;;;;;;11.57;9.30;;;16.30;96.30;;;;;;4995461;28;20432;-78
2022/08/15 04:41:55;;;;;;;12.77;8.60;;;16.80;96.30;;;;;;4996078;28;20205;-79
2022/08/15 04:44:20;;;;;;;8.33;7.53;;;16.90;96.30;;;;;;4978593;28;20217;-78
2022/08/15 04:46:46;;;;;;;9.23;7.80;;;17.20;96.30;;;;;;4978532;28;20432;-79
2022/08/15 04:49:12;;;;;;;10.20;7.70;;;17.50;96.30;;;;;;4995160;28;20181;-79
2022/08/15 04:51:37;;;;;;;11.43;8.83;;;17.50;96.30;;;;;;4995624;28;20681;-79
2022/08/15 04:54:05;;;;;;;9.03;8.10;;;17.50;96.30;;;;;;4994871;28;20174;-79
2022/08/15 04:56:30;;;;;;;8.50;7.70;;;17.60;96.30;;;;;;4995524;28;20219;-79
2022/08/15 04:58:55;;;;;;;11.90;8.57;;;17.70;96.30;;;;;;4977290;28;20507;-79
2022/08/15 05:01:21;;;;;;;9.20;8.30;;;17.60;96.30;;;;;;4995495;28;20206;-79
2022/08/15 05:03:46;;;;;;;30.70;17.60;;;17.50;96.30;;;;;;4995469;28;20205;-79
2022/08/15 05:06:12;;;;;;;43.53;23.30;;;17.60;96.30;;;;;;4995111;28;20685;-78
2022/08/15 05:08:39;;;;;;;15.60;10.97;;;17.70;96.30;;;;;;4994744;28;20174;-79
2022/08/15 05:11:08;;;;;;;9.83;8.50;;;17.80;96.30;;;;;;4995494;28;20244;-79
2022/08/15 05:13:36;;;;;;;13.90;9.73;;;17.90;96.30;;;;;;4995309;28;20413;-78
2022/08/15 05:16:04;;;;;;;8.60;6.90;;;18.00;96.30;;;;;;4995002;28;20771;-79
2022/08/15 05:18:30;;;;;;;8.03;7.30;;;18.20;96.30;;;;;;4994498;28;20976;-79
2022/08/15 05:20:56;;;;;;;9.00;7.37;;;18.50;96.30;;;;;;4995195;28;20524;-79
2022/08/15 05:23:24;;;;;;;7.83;7.13;;;18.50;96.30;;;;;;4994684;28;20305;-79
2022/08/15 05:25:55;;;;;;;9.10;6.90;;;18.50;96.30;;;;;;4995113;28;20436;-79
2022/08/15 05:28:22;;;;;;;10.53;8.47;;;18.40;96.30;;;;;;4977525;28;20464;-79
2022/08/15 05:30:50;;;;;;;6.93;6.33;;;18.40;96.30;;;;;;4995680;28;20996;-79
2022/08/15 05:33:21;;;;;;;9.30;7.70;;;18.60;96.30;;;;;;4996205;28;20425;-79
2022/08/15 05:35:54;;;;;;;7.83;7.20;;;18.70;96.30;;;;;;4995844;28;20416;-79
2022/08/15 05:38:46;;;;;;;9.60;8.70;;;19.20;96.30;;;;;;4995212;28;20412;-79
2022/08/15 05:41:42;;;;;;;9.63;6.57;;;20.30;96.30;;;;;;4965228;28;20445;-77
2022/08/15 05:44:35;;;;;;;9.53;8.47;;;21.30;96.30;;;;;;4993041;28;20461;-77
2022/08/15 05:47:14;;;;;;;8.10;7.30;;;22.20;96.30;;;;;;4993157;28;20401;-78
2022/08/15 05:49:53;;;;;;;8.23;7.30;;;22.90;96.30;;;;;;4992374;28;20405;-77
2022/08/15 05:52:24;;;;;;;8.90;6.20;;;23.40;96.30;;;;;;4993022;28;20432;-78
2022/08/15 05:55:23;;;;;;;7.77;6.83;;;23.90;96.30;;;;;;4975768;28;20979;-77
2022/08/15 05:58:02;;;;;;;8.97;6.47;;;24.30;96.30;;;;;;4975217;28;20448;-77
2022/08/15 06:00:29;;;;;;;12.53;6.40;;;25.20;96.30;;;;;;4992820;28;20440;-77
2022/08/15 06:03:06;;;;;;;7.37;5.90;;;25.60;96.30;;;;;;4975370;28;20456;-77
2022/08/15 06:05:38;;;;;;;8.50;7.00;;;25.60;96.30;;;;;;4992548;28;20403;-77
2022/08/15 06:08:11;;;;;;;10.73;6.80;;;25.90;96.30;;;;;;4992328;28;20396;-77
2022/08/15 06:10:50;;;;;;;7.00;5.93;;;26.00;96.30;;;;;;4992619;28;20437;-78
2022/08/15 06:13:26;;;;;;;8.67;6.47;;;25.90;96.30;;;;;;4992823;28;20440;-77
2022/08/15 06:15:59;;;;;;;9.27;6.33;;;25.90;96.30;;;;;;4992818;28;20404;-77
2022/08/15 06:18:27;;;;;;;6.70;6.10;;;26.40;95.40;;;;;;4991938;28;20425;-77
2022/08/15 06:20:53;;;;;;;6.40;5.80;;;26.50;95.40;;;;;;4975150;28;20869;-77
2022/08/15 06:23:27;;;;;;;6.63;6.03;;;27.10;93.20;;;;;;4992662;28;20506;-77
2022/08/15 06:26:24;;;;;;;6.33;5.73;;;27.40;91.90;;;;;;4992652;28;20552;-77
2022/08/15 06:28:49;;;;;;;7.40;6.17;;;28.00;90.70;;;;;;4992147;28;20389;-77
2022/08/15 06:31:37;;;;;;;12.50;6.87;;;28.00;90.20;;;;;;4992489;28;20442;-77
2022/08/15 06:34:10;;;;;;;9.73;6.23;;;28.70;88.70;;;;;;4992462;28;20169;-78
2022/08/15 06:36:46;;;;;;;5.90;5.33;;;29.10;87.90;;;;;;4975232;28;20470;-80
2022/08/15 06:39:17;;;;;;;7.30;6.60;;;28.90;87.40;;;;;;4992012;28;20411;-80
2022/08/15 06:41:55;;;;;;;6.00;5.50;;;28.00;89.60;;;;;;4992297;28;20544;-77
2022/08/15 06:44:22;;;;;;;18.17;6.37;;;27.90;90.60;;;;;;4992493;28;20447;-77
2022/08/15 06:46:49;;;;;;;19.20;6.10;;;27.80;90.80;;;;;;4992510;28;20408;-77
2022/08/15 06:49:19;;;;;;;7.97;6.43;;;27.80;91.10;;;;;;4991775;28;20492;-80
2022/08/15 06:51:44;;;;;;;6.77;5.83;;;28.40;90.20;;;;;;4992392;28;20424;-78
2022/08/15 06:54:14;;;;;;;10.20;5.90;;;29.60;86.80;;;;;;4992341;28;20473;-77
2022/08/15 06:57:04;;;;;;;10.40;4.83;;;30.40;85.30;;;;;;4974938;28;20272;-77
2022/08/15 07:00:08;;;;;;;11.00;6.27;;;31.20;82.40;;;;;;4990859;28;20519;-77
2022/08/15 07:02:50;;;;;;;6.63;6.03;;;29.40;85.30;;;;;;4992048;28;20876;-77
2022/08/15 07:05:54;;;;;;;8.40;6.27;;;28.40;89.30;;;;;;4992302;28;20404;-77
2022/08/15 07:08:28;;;;;;;6.90;6.20;;;29.70;86.70;;;;;;4942324;28;20426;-77
2022/08/15 07:11:01;;;;;;;6.10;5.50;;;30.00;85.50;;;;;;4974484;28;20491;-77
2022/08/15 07:13:35;;;;;;;10.73;5.70;;;29.80;85.90;;;;;;4992280;28;20483;-77
2022/08/15 07:16:18;;;;;;;10.40;6.13;;;30.90;83.60;;;;;;4975191;28;20420;-77
2022/08/15 07:18:49;;;;;;;9.93;5.63;;;31.40;81.20;;;;;;4995227;28;20400;-80
2022/08/15 07:21:17;;;;;;;9.87;6.20;;;30.50;84.00;;;;;;4995716;28;20530;-77
2022/08/15 07:24:01;;;;;;;10.57;6.10;;;30.80;82.50;;;;;;4995694;28;20535;-77
2022/08/15 07:26:37;;;;;;;7.93;4.87;;;29.70;84.10;;;;;;4995640;28;20176;-77
2022/08/15 07:29:10;;;;;;;10.13;5.20;;;30.30;83.20;;;;;;4977629;28;20199;-77
2022/08/15 07:31:36;;;;;;;7.17;5.30;;;30.60;82.70;;;;;;4995532;28;20428;-77
2022/08/15 07:34:25;;;;;;;6.10;5.50;;;30.70;82.50;;;;;;4995488;28;20508;-80
2022/08/15 07:36:59;;;;;;;5.67;4.80;;;30.70;83.70;;;;;;4995520;28;20392;-77
2022/08/15 07:39:38;;;;;;;5.60;5.10;;;32.30;78.80;;;;;;4977415;28;20481;-77
2022/08/15 07:42:19;;;;;;;8.83;5.27;;;32.90;76.10;;;;;;4977542;28;20440;-77
2022/08/15 07:44:59;;;;;;;13.07;4.70;;;32.00;77.50;;;;;;4995412;28;20648;-81
2022/08/15 07:47:30;;;;;;;10.88;5.25;;;31.80;77.70;;;;;;4995328;28;20149;-77
2022/08/15 07:50:25;;;;;;;10.20;5.18;;;31.60;77.40;;;;;;4994640;28;20188;-77
2022/08/15 07:52:56;;;;;;;4.30;3.90;;;33.20;75.10;;;;;;4995123;28;20192;-79
2022/08/15 07:55:22;;;;;;;6.05;4.47;;;34.40;72.50;;;;;;4995072;28;20181;-77
2022/08/15 07:58:04;;;;;;;4.95;4.20;;;35.30;69.00;;;;;;4977338;28;20228;-85
2022/08/15 08:00:34;;;;;;;5.50;4.10;;;36.20;67.80;;;;;;4994883;28;20247;-80
2022/08/15 08:03:15;;;;;;;4.20;3.88;;;36.80;64.60;;;;;;4994793;28;20542;-78
2022/08/15 08:06:06;;;;;;;4.30;3.78;;;37.40;62.80;;;;;;4995042;28;20161;-81
2022/08/15 08:08:47;;;;;;;4.63;4.18;;;37.60;63.70;;;;;;4994418;28;20668;-80
2022/08/15 08:11:46;;;;;;;4.90;4.40;;;37.20;63.40;;;;;;4975263;28;20217;-78
2022/08/15 08:14:42;;;;;;;4.82;4.30;;;36.80;64.80;;;;;;4958068;28;20201;-81
2022/08/15 08:17:27;;;;;;;6.72;3.75;;;36.10;65.40;;;;;;4975394;28;20551;-77
2022/08/15 08:20:08;;;;;;;5.65;4.32;;;34.00;67.40;;;;;;4974722;28;20173;-77
2022/08/15 08:22:48;;;;;;;5.75;4.70;;;32.80;70.70;;;;;;4975244;28;20166;-78
2022/08/15 08:25:25;;;;;;;7.53;4.60;;;33.80;69.70;;;;;;4975106;28;20201;-80
2022/08/15 08:28:16;;;;;;;4.68;4.28;;;34.20;69.10;;;;;;4974734;28;20164;-78
2022/08/15 08:31:08;;;;;;;6.30;4.28;;;33.40;69.20;;;;;;4975007;28;20288;-77
2022/08/15 08:34:05;;;;;;;5.72;4.85;;;33.70;68.80;;;;;;4975021;28;20166;-77
2022/08/15 08:36:55;;;;;;;5.82;4.80;;;33.70;69.50;;;;;;4957712;28;20177;-78
2022/08/15 08:39:46;;;;;;;7.43;4.70;;;32.00;72.10;;;;;;4974398;28;20162;-80
2022/08/15 08:42:37;;;;;;;6.07;5.40;;;30.30;75.50;;;;;;4976820;28;20478;-77
2022/08/15 08:45:15;;;;;;;10.97;5.23;;;29.60;77.90;;;;;;4994176;28;20428;-79
2022/08/15 08:48:01;;;;;;;6.30;5.33;;;29.60;79.90;;;;;;4994055;28;20409;-77
2022/08/15 08:50:54;;;;;;;6.50;4.87;;;30.60;76.40;;;;;;4994032;28;20520;-77
2022/08/15 08:53:44;;;;;;;8.00;5.57;;;30.60;76.90;;;;;;4994135;28;20491;-77
2022/08/15 08:56:17;;;;;;;7.70;5.57;;;30.10;78.20;;;;;;4993991;28;20400;-77
2022/08/15 08:58:53;;;;;;;10.80;5.23;;;30.60;76.30;;;;;;4993483;28;20397;-77
2022/08/15 09:01:25;;;;;;;7.90;5.60;;;31.90;73.00;;;;;;4993667;28;20443;-80
2022/08/15 09:03:56;;;;;;;5.93;5.30;;;32.50;72.10;;;;;;4993783;28;20444;-77
2022/08/15 09:06:26;;;;;;;6.40;5.43;;;32.60;71.10;;;;;;4976432;28;20416;-77
2022/08/15 09:09:02;;;;;;;6.03;5.50;;;33.20;70.00;;;;;;4993188;28;20405;-77
2022/08/15 09:11:55;;;;;;;9.67;5.57;;;33.70;69.80;;;;;;4993676;28;20428;-78
2022/08/15 09:14:37;;;;;;;6.23;4.73;;;32.10;71.60;;;;;;4993711;28;20404;-77
2022/08/15 09:17:12;;;;;;;11.93;5.20;;;32.80;71.40;;;;;;4993736;28;20503;-77
2022/08/15 09:19:47;;;;;;;8.20;5.80;;;32.90;71.70;;;;;;4975673;28;20462;-77
2022/08/15 09:22:13;;;;;;;5.10;4.70;;;33.40;70.20;;;;;;4993432;28;20522;-77
2022/08/15 09:24:40;;;;;;;10.23;5.33;;;33.10;69.40;;;;;;4993652;28;20464;-80
2022/08/15 09:27:14;;;;;;;5.37;4.87;;;33.10;70.20;;;;;;4993550;28;20400;-77
2022/08/15 09:29:45;;;;;;;5.10;4.70;;;34.00;70.60;;;;;;4992826;28;20400;-80
2022/08/15 09:32:22;;;;;;;5.73;5.17;;;35.20;68.30;;;;;;4993225;28;20486;-77
2022/08/15 09:35:07;;;;;;;5.60;4.90;;;36.10;66.30;;;;;;4993642;28;20404;-77
2022/08/15 09:37:53;;;;;;;7.13;4.90;;;35.50;64.50;;;;;;4993323;28;20153;-78
2022/08/15 09:40:28;;;;;;;6.90;4.60;;;34.60;66.50;;;;;;4992682;28;20474;-77
2022/08/15 09:42:56;;;;;;;5.50;4.93;;;34.80;68.00;;;;;;4993131;28;20479;-77
2022/08/15 09:45:40;;;;;;;6.43;5.17;;;35.10;65.00;;;;;;4993158;28;20408;-77
2022/08/15 09:48:17;;;;;;;7.80;4.77;;;34.30;66.40;;;;;;4992519;28;20173;-77
2022/08/15 09:51:12;;;;;;;5.00;4.60;;;33.30;68.40;;;;;;4993033;28;20428;-77
2022/08/15 09:53:43;;;;;;;5.40;4.90;;;34.00;67.70;;;;;;4993157;28;20799;-77
2022/08/15 09:56:11;;;;;;;11.32;4.82;;;34.90;68.10;;;;;;4975472;28;20169;-77
2022/08/15 09:58:51;;;;;;;9.32;4.90;;;35.20;65.40;;;;;;4992477;28;20177;-77
2022/08/15 10:01:24;;;;;;;4.93;4.38;;;35.50;63.60;;;;;;4992813;28;20205;-77
2022/08/15 10:03:58;;;;;;;5.88;4.55;;;34.80;65.00;;;;;;4992773;28;20201;-77
2022/08/15 10:07:04;;;;;;;6.80;4.50;;;34.30;66.90;;;;;;4992955;28;20155;-77
2022/08/15 10:09:32;;;;;;;6.80;4.70;;;35.10;64.40;;;;;;4992223;28;20172;-81
2022/08/15 10:12:06;;;;;;;5.57;4.85;;;35.10;64.60;;;;;;4992714;28;20519;-77
2022/08/15 10:14:56;;;;;;;5.43;4.90;;;34.60;65.70;;;;;;4975408;28;20164;-77
2022/08/15 10:17:37;;;;;;;9.90;4.80;;;34.00;66.00;;;;;;4995249;28;20259;-79
2022/08/15 10:20:15;;;;;;;5.80;4.37;;;32.20;70.20;;;;;;4976968;28;20478;-79
2022/08/15 10:22:47;;;;;;;10.50;5.40;;;31.90;71.30;;;;;;4997968;28;20447;-79
2022/08/15 10:25:22;;;;;;;12.13;4.70;;;31.10;71.10;;;;;;4978393;28;20479;-77
2022/08/15 10:28:05;;;;;;;7.37;5.30;;;30.60;73.70;;;;;;4992366;28;20392;-78
2022/08/15 10:30:37;;;;;;;5.80;5.30;;;30.50;74.60;;;;;;4996434;28;20927;-78
2022/08/15 10:33:33;;;;;;;8.87;5.53;;;29.20;79.70;;;;;;4997466;28;20527;-77
2022/08/15 10:36:13;;;;;;;8.57;5.50;;;27.40;86.30;;;;;;4992661;28;20408;-79
2022/08/15 10:38:45;;;;;;;6.30;5.03;;;26.80;88.30;;;;;;4974643;28;20470;-77
2022/08/15 10:41:34;;;;;;;5.23;4.73;;;26.80;87.10;;;;;;4992232;28;20429;-79
2022/08/15 10:44:20;;;;;;;6.07;5.30;;;26.90;87.40;;;;;;4992370;28;20468;-77
2022/08/15 10:47:15;;;;;;;16.50;5.93;;;26.90;92.00;;;;;;4975045;28;20928;-79
2022/08/15 10:49:40;;;;;;;8.00;5.00;;;26.60;96.30;;;;;;4991931;28;20403;-78
2022/08/15 10:52:48;;;;;;;7.30;5.67;;;25.60;96.30;;;;;;4994654;28;20431;-78
2022/08/15 10:55:35;;;;;;;7.50;5.97;;;25.00;96.30;;;;;;4996257;28;20248;-78
2022/08/15 10:58:12;;;;;;;9.00;6.20;;;25.00;96.30;;;;;;4995543;28;20416;-78
2022/08/15 11:00:40;;;;;;;5.73;5.20;;;25.30;96.30;;;;;;4996034;28;20443;-81
2022/08/15 11:03:16;;;;;;;10.70;5.03;;;25.50;96.30;;;;;;4996050;28;20447;-79
2022/08/15 11:05:42;;;;;;;6.30;5.70;;;25.50;96.30;;;;;;4996040;28;20869;-78
2022/08/15 11:08:14;;;;;;;11.53;6.00;;;25.20;96.30;;;;;;4995598;28;20424;-77
2022/08/15 11:10:40;;;;;;;5.30;4.57;;;25.10;96.30;;;;;;4995816;28;20952;-79
2022/08/15 11:13:08;;;;;;;6.27;4.80;;;25.40;96.30;;;;;;4995848;28;20464;-77
2022/08/15 11:15:55;;;;;;;5.97;5.47;;;25.70;96.30;;;;;;4995920;28;20170;-78
2022/08/15 11:18:27;;;;;;;6.57;5.87;;;26.20;96.30;;;;;;4995265;28;20389;-78
2022/08/15 11:20:56;;;;;;;5.10;4.70;;;26.50;96.00;;;;;;4995744;28;20432;-77
2022/08/15 11:23:36;;;;;;;9.70;5.50;;;27.10;94.60;;;;;;4995720;28;20498;-77
2022/08/15 11:26:03;;;;;;;6.30;4.90;;;27.60;91.60;;;;;;4995651;28;20401;-78
2022/08/15 11:28:30;;;;;;;8.43;5.80;;;27.90;90.60;;;;;;4995112;28;20408;-78
2022/08/15 11:31:06;;;;;;;5.80;5.20;;;27.20;91.80;;;;;;4995628;28;20436;-77
2022/08/15 11:33:41;;;;;;;6.27;5.30;;;27.40;91.50;;;;;;4978041;28;20432;-78
2022/08/15 11:36:16;;;;;;;5.30;4.80;;;27.80;90.10;;;;;;4995533;28;20419;-78
2022/08/15 11:38:47;;;;;;;8.17;5.70;;;28.00;89.20;;;;;;4994990;28;20410;-78
2022/08/15 11:41:22;;;;;;;5.07;4.57;;;28.00;89.60;;;;;;4995161;28;20440;-78
2022/08/15 11:43:48;;;;;;;14.00;5.00;;;27.90;90.10;;;;;;4995325;28;20483;-78
2022/08/15 11:46:16;;;;;;;5.13;4.70;;;27.70;90.60;;;;;;4995358;28;20435;-78
2022/08/15 11:48:48;;;;;;;6.50;4.57;;;27.30;90.30;;;;;;4994666;28;20413;-77
2022/08/15 11:51:14;;;;;;;6.80;3.90;;;26.60;91.40;;;;;;4995242;28;20431;-77
2022/08/15 11:54:05;;;;;;;5.20;3.70;;;26.50;93.70;;;;;;4977701;28;20412;-78
2022/08/15 11:56:51;;;;;;;4.17;3.87;;;26.10;93.10;;;;;;4995225;28;20169;-77
2022/08/15 11:59:24;;;;;;;3.73;3.43;;;26.30;92.90;;;;;;4994435;28;20492;-78
2022/08/15 12:02:02;;;;;;;2.97;2.70;;;26.60;90.60;;;;;;4994440;28;20448;-78
2022/08/15 12:04:31;;;;;;;4.17;3.17;;;26.70;89.60;;;;;;4994795;28;20471;-78
2022/08/15 12:07:03;;;;;;;6.17;3.30;;;26.50;88.90;;;;;;4994987;28;20407;-78
2022/08/15 12:09:30;;;;;;;4.47;3.33;;;26.30;89.40;;;;;;4994291;28;20408;-77
2022/08/15 12:11:55;;;;;;;3.27;3.00;;;26.00;90.40;;;;;;4994816;28;20428;-77
2022/08/15 12:14:27;;;;;;;5.00;3.50;;;25.60;90.10;;;;;;4994755;28;20911;-77
2022/08/15 12:17:02;;;;;;;11.50;4.03;;;25.20;93.00;;;;;;4994803;28;20169;-77
2022/08/15 12:19:37;;;;;;;5.50;3.83;;;24.90;96.20;;;;;;4994181;28;20397;-77
2022/08/15 12:22:14;;;;;;;5.43;3.53;;;24.80;96.30;;;;;;4994612;28;20436;-78
2022/08/15 12:24:41;;;;;;;4.67;3.57;;;24.80;96.30;;;;;;4994533;28;20436;-77
2022/08/15 12:27:07;;;;;;;8.17;5.27;;;24.70;96.30;;;;;;4994434;28;20843;-77
2022/08/15 12:29:33;;;;;;;4.67;4.23;;;24.90;96.30;;;;;;4994022;28;20492;-79
2022/08/15 12:32:00;;;;;;;10.33;4.50;;;24.80;96.30;;;;;;4994441;28;20197;-79
2022/08/15 12:34:37;;;;;;;5.77;4.60;;;24.90;96.30;;;;;;4994422;28;20416;-78
2022/08/15 12:37:09;;;;;;;5.13;4.63;;;24.80;96.30;;;;;;4994475;28;20885;-78
2022/08/15 12:39:37;;;;;;;8.23;5.20;;;24.30;96.30;;;;;;4993725;28;20909;-77
2022/08/15 12:42:02;;;;;;;5.90;5.17;;;24.20;96.30;;;;;;4993956;28;20449;-77
2022/08/15 12:44:33;;;;;;;5.23;4.70;;;24.10;96.30;;;;;;4994166;28;20502;-78
2022/08/15 12:46:59;;;;;;;5.10;4.60;;;24.30;96.30;;;;;;4994280;28;20158;-78
2022/08/15 12:49:25;;;;;;;5.80;4.83;;;24.90;96.30;;;;;;4993591;28;20401;-78
2022/08/15 12:51:51;;;;;;;5.43;4.93;;;25.30;96.30;;;;;;4994067;28;20190;-77
2022/08/15 12:54:17;;;;;;;8.30;4.67;;;25.60;96.30;;;;;;4994069;28;20533;-78
2022/08/15 12:56:44;;;;;;;7.47;4.90;;;25.40;96.30;;;;;;4993912;28;20411;-78
2022/08/15 12:59:11;;;;;;;7.63;5.10;;;25.40;96.30;;;;;;4975923;28;20181;-79
2022/08/15 13:01:39;;;;;;;6.80;5.50;;;25.20;96.30;;;;;;4993849;28;20479;-77
2022/08/15 13:04:08;;;;;;;6.57;5.07;;;25.20;96.30;;;;;;4993722;28;20487;-78
2022/08/15 13:06:53;;;;;;;8.73;5.87;;;25.60;96.30;;;;;;4993928;28;20422;-78
2022/08/15 13:09:20;;;;;;;8.63;5.10;;;25.60;96.30;;;;;;4993459;28;20829;-78
2022/08/15 13:11:49;;;;;;;6.90;5.77;;;25.70;96.30;;;;;;4993697;28;20428;-80
2022/08/15 13:14:18;;;;;;;6.10;5.50;;;25.80;96.30;;;;;;4992969;28;20508;-78
2022/08/15 13:16:46;;;;;;;6.57;5.27;;;25.70;96.30;;;;;;4993690;28;20483;-78
2022/08/15 13:23:34;;;;;;;5.70;5.30;;;25.70;96.30;;;;;;4992970;28;20478;-77
2022/08/15 13:25:06;;;;;;;11.77;4.80;;;25.60;96.30;;;;;;4993417;28;20797;-77
2022/08/15 13:27:33;;;;;;;6.00;5.40;;;25.70;96.30;;;;;;4993429;28;20918;-78
2022/08/15 13:29:59;;;;;;;23.97;5.67;;;26.00;96.30;;;;;;4992901;28;20848;-78
2022/08/15 13:32:25;;;;;;;8.50;5.83;;;26.10;96.30;;;;;;4993361;28;20424;-79
2022/08/15 13:34:51;;;;;;;14.90;5.20;;;26.30;96.30;;;;;;4993286;28;20419;-78
2022/08/15 13:37:17;;;;;;;7.07;5.30;;;26.40;96.30;;;;;;4993307;28;20173;-80
2022/08/15 13:39:42;;;;;;;6.23;5.63;;;26.30;96.30;;;;;;4992627;28;20415;-78
2022/08/15 13:42:08;;;;;;;6.43;5.87;;;26.40;96.30;;;;;;4993636;28;20235;-78
2022/08/15 13:44:36;;;;;;;5.57;5.07;;;26.50;96.30;;;;;;4993133;28;20204;-78
2022/08/15 13:47:02;;;;;;;7.53;5.50;;;26.50;96.30;;;;;;4993201;28;20212;-80
2022/08/15 13:49:29;;;;;;;7.60;4.77;;;26.70;94.60;;;;;;4992524;28;20831;-78
2022/08/15 13:51:56;;;;;;;5.63;4.80;;;26.60;93.60;;;;;;4993099;28;20428;-78
2022/08/15 13:54:25;;;;;;;6.80;5.30;;;26.70;93.50;;;;;;4975531;28;20423;-79
2022/08/15 13:56:52;;;;;;;5.73;5.13;;;26.70;92.70;;;;;;4993047;28;20542;-78
2022/08/15 13:59:19;;;;;;;6.10;5.50;;;27.20;91.20;;;;;;4992486;28;20429;-78
2022/08/15 14:01:48;;;;;;;4.90;4.50;;;28.30;91.60;;;;;;4992790;28;20479;-78
2022/08/15 14:04:20;;;;;;;11.80;5.80;;;29.30;88.90;;;;;;4992735;28;20455;-78
2022/08/15 14:06:45;;;;;;;7.63;5.80;;;29.20;87.90;;;;;;4975471;28;20412;-78
2022/08/15 14:09:13;;;;;;;5.40;5.00;;;28.60;88.60;;;;;;4992244;28;20442;-78
2022/08/15 14:11:39;;;;;;;6.53;5.93;;;28.50;85.40;;;;;;4992693;28;20199;-79
2022/08/15 14:14:05;;;;;;;4.37;4.07;;;28.50;85.00;;;;;;4992769;28;20908;-79
2022/08/15 14:16:33;;;;;;;4.53;3.30;;;28.50;83.00;;;;;;4992770;28;20416;-78
2022/08/15 14:18:59;;;;;;;4.20;3.80;;;28.50;82.90;;;;;;4992103;28;20906;-80
2022/08/15 14:21:25;;;;;;;4.30;3.90;;;28.60;79.60;;;;;;4992565;28;20447;-78
2022/08/15 14:23:50;;;;;;;4.73;4.33;;;28.20;83.00;;;;;;4992611;28;20240;-78
2022/08/15 14:26:17;;;;;;;4.33;3.90;;;28.40;83.20;;;;;;4997025;28;20598;-78
2022/08/15 14:28:42;;;;;;;4.33;3.97;;;28.40;83.50;;;;;;4998647;28;20171;-78
2022/08/15 14:31:08;;;;;;;10.37;3.60;;;28.30;84.30;;;;;;4999168;28;20518;-78
2022/08/15 14:33:34;;;;;;;5.90;4.10;;;28.40;84.60;;;;;;4999163;28;20176;-78
2022/08/15 14:36:01;;;;;;;5.07;3.73;;;28.40;85.60;;;;;;4998981;28;20416;-78
2022/08/15 14:38:29;;;;;;;4.67;3.40;;;28.10;84.60;;;;;;4998563;28;20165;-77
2022/08/15 14:40:55;;;;;;;4.80;4.30;;;27.90;84.70;;;;;;4998811;28;20450;-78
2022/08/15 14:43:21;;;;;;;3.90;3.60;;;27.70;85.90;;;;;;4998915;28;20455;-78
2022/08/15 14:45:49;;;;;;;3.73;3.33;;;27.50;85.00;;;;;;4998962;28;20776;-78
2022/08/15 14:48:18;;;;;;;4.27;3.87;;;27.20;86.00;;;;;;4998221;28;20444;-78
2022/08/15 14:50:44;;;;;;;5.10;3.70;;;26.80;86.00;;;;;;4998900;28;20432;-78
2022/08/15 14:53:11;;;;;;;3.93;3.40;;;26.40;87.20;;;;;;4998904;28;20503;-80
2022/08/15 14:55:37;;;;;;;4.00;3.23;;;26.10;88.30;;;;;;4998869;28;20176;-78
2022/08/15 14:58:03;;;;;;;3.57;3.27;;;25.90;87.20;;;;;;4998341;28;20424;-78
2022/08/15 15:00:31;;;;;;;8.30;3.10;;;26.00;87.00;;;;;;4998764;28;20260;-77
2022/08/15 15:02:57;;;;;;;3.13;2.93;;;26.10;87.00;;;;;;4998681;28;20452;-78
2022/08/15 15:05:23;;;;;;;4.10;3.57;;;26.10;87.50;;;;;;4998845;28;20459;-78
2022/08/15 15:07:53;;;;;;;7.13;3.00;;;26.10;86.00;;;;;;4998447;28;20491;-84
2022/08/15 15:10:19;;;;;;;5.53;3.30;;;26.00;85.50;;;;;;4998684;28;20475;-79
2022/08/15 15:12:44;;;;;;;3.67;3.23;;;26.00;87.40;;;;;;4998811;28;20414;-80
2022/08/15 15:15:12;;;;;;;4.33;3.70;;;25.90;87.30;;;;;;5001045;28;20414;-79
2022/08/15 15:17:39;;;;;;;3.30;3.10;;;25.80;87.80;;;;;;4986548;28;20168;-79
2022/08/15 15:20:06;;;;;;;4.27;3.53;;;25.80;89.00;;;;;;5003437;28;20404;-79
2022/08/15 15:22:31;;;;;;;4.90;3.20;;;25.60;86.10;;;;;;4985806;28;20436;-79
2022/08/15 15:24:57;;;;;;;3.80;2.63;;;25.50;89.60;;;;;;5003755;28;20955;-78
2022/08/15 15:27:22;;;;;;;7.43;3.20;;;25.30;85.60;;;;;;5004302;28;20220;-79
2022/08/15 15:29:48;;;;;;;4.83;3.83;;;25.10;90.00;;;;;;5003359;28;20224;-79
2022/08/15 15:32:15;;;;;;;3.93;3.53;;;25.00;93.30;;;;;;4986015;28;20204;-80
2022/08/15 15:34:40;;;;;;;2.70;2.50;;;24.60;94.90;;;;;;5003569;28;20215;-80
2022/08/15 15:37:06;;;;;;;4.33;3.20;;;24.40;91.30;;;;;;4983573;28;20456;-80
2022/08/15 15:39:32;;;;;;;5.77;3.20;;;24.10;95.30;;;;;;4999763;28;20170;-81
2022/08/15 15:41:57;;;;;;;12.27;3.33;;;23.90;96.30;;;;;;4983089;28;20205;-80
2022/08/15 15:44:25;;;;;;;5.50;3.03;;;24.00;96.30;;;;;;5000753;28;20531;-81
2022/08/15 15:46:55;;;;;;;14.03;3.60;;;24.10;96.30;;;;;;4999674;28;20180;-81
2022/08/15 15:49:42;;;;;;;7.50;3.50;;;24.00;96.30;;;;;;4998185;28;20415;-80
2022/08/15 15:52:20;;;;;;;3.13;2.83;;;23.50;96.30;;;;;;4981543;28;20508;-81
2022/08/15 15:54:47;;;;;;;6.33;3.33;;;23.00;96.30;;;;;;4999263;28;20424;-80
2022/08/15 15:57:13;;;;;;;13.23;4.13;;;22.70;96.30;;;;;;4999016;28;20417;-81
2022/08/15 15:59:39;;;;;;;9.63;3.40;;;22.40;96.30;;;;;;4999261;28;20431;-81
2022/08/15 16:02:07;;;;;;;7.00;3.43;;;22.10;96.30;;;;;;4998872;28;20551;-80
2022/08/15 16:04:32;;;;;;;5.73;3.60;;;21.90;96.30;;;;;;4999063;28;20304;-78
2022/08/15 16:06:58;;;;;;;8.33;4.40;;;21.90;96.30;;;;;;5000249;28;20445;-80
2022/08/15 16:09:24;;;;;;;7.07;4.30;;;21.80;96.30;;;;;;4995702;28;20634;-82
2022/08/15 16:12:13;;;;;;;4.80;4.30;;;21.80;96.30;;;;;;4996675;28;20201;-81
2022/08/15 16:14:53;;;;;;;3.73;3.43;;;21.80;96.30;;;;;;4995865;28;20634;-81
2022/08/15 16:17:32;;;;;;;4.63;4.10;;;21.60;96.30;;;;;;4995897;28;20496;-77
2022/08/15 16:20:27;;;;;;;5.53;3.87;;;21.40;96.30;;;;;;4996589;28;20920;-80
2022/08/15 16:23:05;;;;;;;3.80;3.30;;;21.30;96.30;;;;;;4995185;28;20925;-79
2022/08/15 16:25:35;;;;;;;2.87;2.67;;;21.20;96.30;;;;;;4977853;28;20416;-77
2022/08/15 16:28:24;;;;;;;6.27;3.87;;;21.20;96.30;;;;;;4994041;28;20512;-77
2022/08/15 16:31:22;;;;;;;2.97;2.70;;;21.20;96.30;;;;;;4993744;28;20445;-78
2022/08/15 16:33:58;;;;;;;5.93;2.97;;;21.30;96.30;;;;;;4934736;28;20405;-78
2022/08/15 16:36:36;;;;;;;5.00;2.60;;;21.20;96.30;;;;;;4994450;28;20401;-77
2022/08/15 16:39:48;;;;;;;5.97;2.40;;;21.20;96.30;;;;;;4993933;28;20425;-77
2022/08/15 16:42:22;;;;;;;4.00;2.67;;;21.10;96.30;;;;;;4915165;29;20515;-77
2022/08/15 16:44:52;;;;;;;3.00;2.77;;;21.00;96.30;;;;;;4915261;29;20490;-82
2022/08/15 16:47:26;;;;;;;2.93;2.40;;;21.00;96.30;;;;;;4958414;28;20421;-77
2022/08/15 16:50:20;;;;;;;2.90;2.57;;;21.00;96.30;;;;;;4992416;28;20405;-79
2022/08/15 16:53:06;;;;;;;2.90;1.87;;;21.00;96.30;;;;;;4994105;28;20413;-77
2022/08/15 16:56:01;;;;;;;4.23;2.20;;;21.10;96.30;;;;;;4976595;28;20425;-78
2022/08/15 16:58:39;;;;;;;5.73;1.67;;;21.10;96.30;;;;;;4993975;28;20870;-77
2022/08/15 17:01:40;;;;;;;3.83;1.87;;;20.80;96.30;;;;;;4994083;28;20452;-74
2022/08/15 17:04:33;;;;;;;8.23;2.10;;;20.60;96.30;;;;;;4976467;28;20476;-74
2022/08/15 17:08:01;;;;;;;4.63;1.90;;;20.50;96.30;;;;;;4976578;28;20401;-77
2022/08/15 17:10:40;;;;;;;2.90;1.70;;;20.40;96.30;;;;;;4933547;29;20471;-77
2022/08/15 17:13:26;;;;;;;4.03;2.00;;;20.20;96.30;;;;;;4969953;28;20905;-75
2022/08/15 17:16:16;;;;;;;6.53;3.10;;;20.00;96.30;;;;;;4974473;28;20873;-76
2022/08/15 17:18:50;;;;;;;3.80;3.27;;;20.00;96.30;;;;;;4974355;28;20406;-76
2022/08/15 17:21:23;;;;;;;4.37;3.33;;;19.70;96.30;;;;;;4957038;28;20551;-76
2022/08/15 17:24:07;;;;;;;3.97;2.73;;;19.60;96.30;;;;;;4974370;28;20919;-76